sensor_id;sensor_type;location;lat;lon;timestamp;P1;durP1;ratioP1;P2;durP2;ratioP2
44145;SDS011;29809;52.432;4.780;2023-04-03T00:00:42;1.30;;;0.63;;
44145;SDS011;29809;52.432;4.780;2023-04-03T00:03:07;1.70;;;0.85;;
44145;SDS011;29809;52.432;4.780;2023-04-03T00:05:33;0.85;;;0.52;;
44145;SDS011;29809;52.432;4.780;2023-04-03T00:07:58;0.73;;;0.73;;
44145;SDS011;29809;52.432;4.780;2023-04-03T00:10:23;1.58;;;0.70;;
44145;SDS011;29809;52.432;4.780;2023-04-03T00:12:48;0.75;;;0.60;;
44145;SDS011;29809;52.432;4.780;2023-04-03T00:15:14;0.65;;;0.50;;
44145;SDS011;29809;52.432;4.780;2023-04-03T00:17:39;1.10;;;0.60;;
44145;SDS011;29809;52.432;4.780;2023-04-03T00:20:04;1.05;;;0.70;;
44145;SDS011;29809;52.432;4.780;2023-04-03T00:22:30;0.50;;;0.50;;
44145;SDS011;29809;52.432;4.780;2023-04-03T00:24:56;0.73;;;0.60;;
44145;SDS011;29809;52.432;4.780;2023-04-03T00:27:21;1.42;;;0.80;;
44145;SDS011;29809;52.432;4.780;2023-04-03T00:29:47;0.60;;;0.60;;
44145;SDS011;29809;52.432;4.780;2023-04-03T00:32:12;0.95;;;0.60;;
44145;SDS011;29809;52.432;4.780;2023-04-03T00:34:37;0.60;;;0.50;;
44145;SDS011;29809;52.432;4.780;2023-04-03T00:37:03;0.70;;;0.70;;
44145;SDS011;29809;52.432;4.780;2023-04-03T00:39:28;0.57;;;0.57;;
44145;SDS011;29809;52.432;4.780;2023-04-03T00:41:53;1.50;;;0.70;;
44145;SDS011;29809;52.432;4.780;2023-04-03T00:44:23;0.95;;;0.55;;
44145;SDS011;29809;52.432;4.780;2023-04-03T00:47:04;1.13;;;0.68;;
44145;SDS011;29809;52.432;4.780;2023-04-03T00:49:30;1.95;;;0.60;;
44145;SDS011;29809;52.432;4.780;2023-04-03T00:51:56;0.75;;;0.70;;
44145;SDS011;29809;52.432;4.780;2023-04-03T00:54:22;0.90;;;0.73;;
44145;SDS011;29809;52.432;4.780;2023-04-03T00:56:48;1.58;;;0.77;;
44145;SDS011;29809;52.432;4.780;2023-04-03T00:59:16;0.50;;;0.50;;
44145;SDS011;29809;52.432;4.780;2023-04-03T01:01:43;1.38;;;0.60;;
44145;SDS011;29809;52.432;4.780;2023-04-03T01:04:51;0.60;;;0.60;;
44145;SDS011;29809;52.432;4.780;2023-04-03T01:06:58;0.47;;;0.45;;
44145;SDS011;29809;52.432;4.780;2023-04-03T01:09:24;1.10;;;0.70;;
44145;SDS011;29809;52.432;4.780;2023-04-03T01:11:51;1.65;;;0.60;;
44145;SDS011;29809;52.432;4.780;2023-04-03T01:14:16;0.70;;;0.60;;
44145;SDS011;29809;52.432;4.780;2023-04-03T01:16:41;0.68;;;0.68;;
44145;SDS011;29809;52.432;4.780;2023-04-03T01:19:07;0.73;;;0.70;;
44145;SDS011;29809;52.432;4.780;2023-04-03T01:24:14;1.67;;;0.50;;
44145;SDS011;29809;52.432;4.780;2023-04-03T01:26:40;0.50;;;0.50;;
44145;SDS011;29809;52.432;4.780;2023-04-03T01:29:06;0.63;;;0.63;;
44145;SDS011;29809;52.432;4.780;2023-04-03T01:34:00;0.85;;;0.50;;
44145;SDS011;29809;52.432;4.780;2023-04-03T01:36:27;1.05;;;0.77;;
44145;SDS011;29809;52.432;4.780;2023-04-03T01:38:53;1.05;;;0.50;;
44145;SDS011;29809;52.432;4.780;2023-04-03T01:41:19;1.15;;;0.70;;
44145;SDS011;29809;52.432;4.780;2023-04-03T01:43:46;0.50;;;0.50;;
44145;SDS011;29809;52.432;4.780;2023-04-03T01:46:11;0.60;;;0.60;;
44145;SDS011;29809;52.432;4.780;2023-04-03T01:48:36;1.08;;;0.55;;
44145;SDS011;29809;52.432;4.780;2023-04-03T01:51:02;0.82;;;0.68;;
44145;SDS011;29809;52.432;4.780;2023-04-03T01:53:27;1.23;;;0.65;;
44145;SDS011;29809;52.432;4.780;2023-04-03T01:55:52;1.13;;;0.73;;
44145;SDS011;29809;52.432;4.780;2023-04-03T01:58:18;0.93;;;0.60;;
44145;SDS011;29809;52.432;4.780;2023-04-03T02:00:43;0.77;;;0.65;;
44145;SDS011;29809;52.432;4.780;2023-04-03T02:03:08;1.73;;;0.77;;
44145;SDS011;29809;52.432;4.780;2023-04-03T02:05:33;0.88;;;0.70;;
44145;SDS011;29809;52.432;4.780;2023-04-03T02:07:59;1.13;;;0.60;;
44145;SDS011;29809;52.432;4.780;2023-04-03T02:10:24;1.35;;;0.90;;
44145;SDS011;29809;52.432;4.780;2023-04-03T02:12:50;1.05;;;0.50;;
44145;SDS011;29809;52.432;4.780;2023-04-03T02:15:15;0.77;;;0.47;;
44145;SDS011;29809;52.432;4.780;2023-04-03T02:17:41;0.65;;;0.65;;
44145;SDS011;29809;52.432;4.780;2023-04-03T02:20:06;2.35;;;0.80;;
44145;SDS011;29809;52.432;4.780;2023-04-03T02:22:31;0.65;;;0.65;;
44145;SDS011;29809;52.432;4.780;2023-04-03T02:24:57;1.38;;;0.70;;
44145;SDS011;29809;52.432;4.780;2023-04-03T02:27:22;0.55;;;0.55;;
44145;SDS011;29809;52.432;4.780;2023-04-03T02:29:47;0.77;;;0.65;;
44145;SDS011;29809;52.432;4.780;2023-04-03T02:32:12;1.10;;;0.45;;
44145;SDS011;29809;52.432;4.780;2023-04-03T02:34:38;1.20;;;0.80;;
44145;SDS011;29809;52.432;4.780;2023-04-03T02:37:03;0.63;;;0.63;;
44145;SDS011;29809;52.432;4.780;2023-04-03T02:39:28;0.77;;;0.60;;
44145;SDS011;29809;52.432;4.780;2023-04-03T02:41:53;2.60;;;0.70;;
44145;SDS011;29809;52.432;4.780;2023-04-03T02:44:19;1.33;;;0.80;;
44145;SDS011;29809;52.432;4.780;2023-04-03T02:46:44;1.00;;;0.70;;
44145;SDS011;29809;52.432;4.780;2023-04-03T02:49:09;0.85;;;0.57;;
44145;SDS011;29809;52.432;4.780;2023-04-03T02:51:35;0.98;;;0.73;;
44145;SDS011;29809;52.432;4.780;2023-04-03T02:54:00;0.82;;;0.60;;
44145;SDS011;29809;52.432;4.780;2023-04-03T02:56:25;1.73;;;0.70;;
44145;SDS011;29809;52.432;4.780;2023-04-03T02:58:51;1.73;;;0.60;;
44145;SDS011;29809;52.432;4.780;2023-04-03T03:01:17;0.88;;;0.73;;
44145;SDS011;29809;52.432;4.780;2023-04-03T03:03:42;1.40;;;0.60;;
44145;SDS011;29809;52.432;4.780;2023-04-03T03:06:08;1.92;;;1.00;;
44145;SDS011;29809;52.432;4.780;2023-04-03T03:08:34;1.25;;;0.77;;
44145;SDS011;29809;52.432;4.780;2023-04-03T03:11:00;0.75;;;0.50;;
44145;SDS011;29809;52.432;4.780;2023-04-03T03:13:25;1.30;;;0.82;;
44145;SDS011;29809;52.432;4.780;2023-04-03T03:15:50;0.77;;;0.60;;
44145;SDS011;29809;52.432;4.780;2023-04-03T03:18:16;0.80;;;0.60;;
44145;SDS011;29809;52.432;4.780;2023-04-03T03:20:41;0.57;;;0.57;;
44145;SDS011;29809;52.432;4.780;2023-04-03T03:23:06;0.82;;;0.82;;
44145;SDS011;29809;52.432;4.780;2023-04-03T03:25:31;1.80;;;0.80;;
44145;SDS011;29809;52.432;4.780;2023-04-03T03:27:56;1.00;;;0.88;;
44145;SDS011;29809;52.432;4.780;2023-04-03T03:30:22;1.73;;;0.70;;
44145;SDS011;29809;52.432;4.780;2023-04-03T03:32:47;1.42;;;0.90;;
44145;SDS011;29809;52.432;4.780;2023-04-03T03:35:12;1.77;;;0.68;;
44145;SDS011;29809;52.432;4.780;2023-04-03T03:37:37;1.02;;;0.80;;
44145;SDS011;29809;52.432;4.780;2023-04-03T03:40:03;1.60;;;0.65;;
44145;SDS011;29809;52.432;4.780;2023-04-03T03:42:28;0.80;;;0.80;;
44145;SDS011;29809;52.432;4.780;2023-04-03T03:44:53;0.60;;;0.60;;
44145;SDS011;29809;52.432;4.780;2023-04-03T03:47:18;0.98;;;0.57;;
44145;SDS011;29809;52.432;4.780;2023-04-03T03:49:44;1.13;;;0.90;;
44145;SDS011;29809;52.432;4.780;2023-04-03T03:52:09;1.38;;;0.70;;
44145;SDS011;29809;52.432;4.780;2023-04-03T03:54:35;0.80;;;0.75;;
44145;SDS011;29809;52.432;4.780;2023-04-03T03:57:01;0.68;;;0.68;;
44145;SDS011;29809;52.432;4.780;2023-04-03T03:59:26;0.90;;;0.75;;
44145;SDS011;29809;52.432;4.780;2023-04-03T04:01:51;1.00;;;0.90;;
44145;SDS011;29809;52.432;4.780;2023-04-03T04:04:16;0.82;;;0.70;;
44145;SDS011;29809;52.432;4.780;2023-04-03T04:06:42;1.05;;;0.85;;
44145;SDS011;29809;52.432;4.780;2023-04-03T04:09:08;1.05;;;0.80;;
44145;SDS011;29809;52.432;4.780;2023-04-03T04:11:33;0.70;;;0.70;;
44145;SDS011;29809;52.432;4.780;2023-04-03T04:13:59;0.77;;;0.60;;
44145;SDS011;29809;52.432;4.780;2023-04-03T04:16:24;0.75;;;0.70;;
44145;SDS011;29809;52.432;4.780;2023-04-03T04:18:50;2.05;;;1.00;;
44145;SDS011;29809;52.432;4.780;2023-04-03T04:21:15;2.08;;;0.95;;
44145;SDS011;29809;52.432;4.780;2023-04-03T04:23:40;2.08;;;1.02;;
44145;SDS011;29809;52.432;4.780;2023-04-03T04:26:05;0.70;;;0.50;;
44145;SDS011;29809;52.432;4.780;2023-04-03T04:28:31;1.05;;;0.85;;
44145;SDS011;29809;52.432;4.780;2023-04-03T04:30:56;1.15;;;0.85;;
44145;SDS011;29809;52.432;4.780;2023-04-03T04:33:21;2.67;;;0.90;;
44145;SDS011;29809;52.432;4.780;2023-04-03T04:35:47;0.85;;;0.80;;
44145;SDS011;29809;52.432;4.780;2023-04-03T04:38:12;2.17;;;0.77;;
44145;SDS011;29809;52.432;4.780;2023-04-03T04:40:38;1.65;;;0.93;;
44145;SDS011;29809;52.432;4.780;2023-04-03T04:43:03;0.73;;;0.73;;
44145;SDS011;29809;52.432;4.780;2023-04-03T04:45:28;3.60;;;1.13;;
44145;SDS011;29809;52.432;4.780;2023-04-03T04:47:55;2.80;;;0.77;;
44145;SDS011;29809;52.432;4.780;2023-04-03T04:50:20;6.35;;;1.23;;
44145;SDS011;29809;52.432;4.780;2023-04-03T04:52:45;1.20;;;0.88;;
44145;SDS011;29809;52.432;4.780;2023-04-03T04:55:11;1.83;;;1.00;;
44145;SDS011;29809;52.432;4.780;2023-04-03T04:57:36;1.85;;;0.75;;
44145;SDS011;29809;52.432;4.780;2023-04-03T05:00:03;15.52;;;5.75;;
44145;SDS011;29809;52.432;4.780;2023-04-03T05:02:29;77.10;;;24.77;;
44145;SDS011;29809;52.432;4.780;2023-04-03T05:04:55;95.80;;;27.80;;
44145;SDS011;29809;52.432;4.780;2023-04-03T05:07:20;70.97;;;22.70;;
44145;SDS011;29809;52.432;4.780;2023-04-03T05:09:45;60.50;;;19.95;;
44145;SDS011;29809;52.432;4.780;2023-04-03T05:12:11;50.88;;;17.25;;
44145;SDS011;29809;52.432;4.780;2023-04-03T05:14:36;52.65;;;16.10;;
44145;SDS011;29809;52.432;4.780;2023-04-03T05:17:01;43.17;;;15.30;;
44145;SDS011;29809;52.432;4.780;2023-04-03T05:19:26;37.83;;;13.18;;
44145;SDS011;29809;52.432;4.780;2023-04-03T05:21:52;34.72;;;14.20;;
44145;SDS011;29809;52.432;4.780;2023-04-03T05:24:17;32.90;;;12.35;;
44145;SDS011;29809;52.432;4.780;2023-04-03T05:26:43;34.17;;;12.70;;
44145;SDS011;29809;52.432;4.780;2023-04-03T05:29:08;25.10;;;10.02;;
44145;SDS011;29809;52.432;4.780;2023-04-03T05:31:33;29.10;;;11.15;;
44145;SDS011;29809;52.432;4.780;2023-04-03T05:33:59;27.20;;;10.93;;
44145;SDS011;29809;52.432;4.780;2023-04-03T05:36:24;25.00;;;8.63;;
44145;SDS011;29809;52.432;4.780;2023-04-03T05:38:50;21.30;;;8.30;;
44145;SDS011;29809;52.432;4.780;2023-04-03T05:41:16;24.30;;;8.60;;
44145;SDS011;29809;52.432;4.780;2023-04-03T05:43:41;15.35;;;7.43;;
44145;SDS011;29809;52.432;4.780;2023-04-03T05:46:09;18.83;;;7.03;;
44145;SDS011;29809;52.432;4.780;2023-04-03T05:48:34;16.10;;;6.50;;
44145;SDS011;29809;52.432;4.780;2023-04-03T05:50:59;16.73;;;6.70;;
44145;SDS011;29809;52.432;4.780;2023-04-03T05:53:27;17.25;;;6.38;;
44145;SDS011;29809;52.432;4.780;2023-04-03T05:55:52;13.95;;;6.40;;
44145;SDS011;29809;52.432;4.780;2023-04-03T05:58:18;9.80;;;5.53;;
44145;SDS011;29809;52.432;4.780;2023-04-03T06:00:44;11.95;;;5.28;;
44145;SDS011;29809;52.432;4.780;2023-04-03T06:03:10;14.00;;;5.35;;
44145;SDS011;29809;52.432;4.780;2023-04-03T06:05:35;13.85;;;5.10;;
44145;SDS011;29809;52.432;4.780;2023-04-03T06:08:01;10.68;;;4.82;;
44145;SDS011;29809;52.432;4.780;2023-04-03T06:10:26;13.57;;;4.93;;
44145;SDS011;29809;52.432;4.780;2023-04-03T06:12:51;10.43;;;4.97;;
44145;SDS011;29809;52.432;4.780;2023-04-03T06:15:16;5.90;;;3.95;;
44145;SDS011;29809;52.432;4.780;2023-04-03T06:17:42;8.15;;;3.50;;
44145;SDS011;29809;52.432;4.780;2023-04-03T06:20:07;10.23;;;3.80;;
44145;SDS011;29809;52.432;4.780;2023-04-03T06:22:34;3.60;;;2.63;;
44145;SDS011;29809;52.432;4.780;2023-04-03T06:24:59;5.40;;;2.75;;
44145;SDS011;29809;52.432;4.780;2023-04-03T06:27:24;6.63;;;2.55;;
44145;SDS011;29809;52.432;4.780;2023-04-03T06:29:50;6.05;;;3.25;;
44145;SDS011;29809;52.432;4.780;2023-04-03T06:32:15;4.45;;;2.95;;
44145;SDS011;29809;52.432;4.780;2023-04-03T06:34:41;7.30;;;2.65;;
44145;SDS011;29809;52.432;4.780;2023-04-03T06:37:06;5.32;;;2.83;;
44145;SDS011;29809;52.432;4.780;2023-04-03T06:39:35;5.47;;;3.08;;
44145;SDS011;29809;52.432;4.780;2023-04-03T06:42:00;3.95;;;2.40;;
44145;SDS011;29809;52.432;4.780;2023-04-03T06:44:26;5.05;;;2.50;;
44145;SDS011;29809;52.432;4.780;2023-04-03T06:46:52;5.07;;;2.72;;
44145;SDS011;29809;52.432;4.780;2023-04-03T06:49:19;5.70;;;2.30;;
44145;SDS011;29809;52.432;4.780;2023-04-03T06:51:44;4.03;;;2.17;;
44145;SDS011;29809;52.432;4.780;2023-04-03T06:54:10;6.90;;;2.97;;
44145;SDS011;29809;52.432;4.780;2023-04-03T06:56:35;5.07;;;2.13;;
44145;SDS011;29809;52.432;4.780;2023-04-03T06:59:00;3.50;;;2.10;;
44145;SDS011;29809;52.432;4.780;2023-04-03T07:01:26;3.78;;;2.17;;
44145;SDS011;29809;52.432;4.780;2023-04-03T07:03:53;3.88;;;2.10;;
44145;SDS011;29809;52.432;4.780;2023-04-03T07:06:18;2.50;;;2.10;;
44145;SDS011;29809;52.432;4.780;2023-04-03T07:08:44;6.57;;;2.42;;
44145;SDS011;29809;52.432;4.780;2023-04-03T07:11:10;1.80;;;1.45;;
44145;SDS011;29809;52.432;4.780;2023-04-03T07:13:37;3.33;;;2.03;;
44145;SDS011;29809;52.432;4.780;2023-04-03T07:16:02;3.85;;;1.92;;
44145;SDS011;29809;52.432;4.780;2023-04-03T07:18:29;2.67;;;1.60;;
44145;SDS011;29809;52.432;4.780;2023-04-03T07:20:55;2.70;;;1.67;;
44145;SDS011;29809;52.432;4.780;2023-04-03T07:23:20;3.17;;;1.70;;
44145;SDS011;29809;52.432;4.780;2023-04-03T07:25:46;5.88;;;2.35;;
44145;SDS011;29809;52.432;4.780;2023-04-03T07:28:12;4.05;;;1.88;;
44145;SDS011;29809;52.432;4.780;2023-04-03T07:30:45;2.65;;;1.63;;
44145;SDS011;29809;52.432;4.780;2023-04-03T07:33:11;2.13;;;1.70;;
44145;SDS011;29809;52.432;4.780;2023-04-03T07:35:36;3.60;;;1.88;;
44145;SDS011;29809;52.432;4.780;2023-04-03T07:38:02;3.95;;;1.65;;
44145;SDS011;29809;52.432;4.780;2023-04-03T07:40:27;4.03;;;1.92;;
44145;SDS011;29809;52.432;4.780;2023-04-03T07:42:52;2.58;;;1.50;;
44145;SDS011;29809;52.432;4.780;2023-04-03T07:45:17;3.42;;;1.63;;
44145;SDS011;29809;52.432;4.780;2023-04-03T07:47:43;2.70;;;1.35;;
44145;SDS011;29809;52.432;4.780;2023-04-03T07:50:09;2.75;;;1.40;;
44145;SDS011;29809;52.432;4.780;2023-04-03T07:52:34;2.30;;;1.67;;
44145;SDS011;29809;52.432;4.780;2023-04-03T07:55:00;3.25;;;1.80;;
44145;SDS011;29809;52.432;4.780;2023-04-03T07:57:25;2.90;;;1.65;;
44145;SDS011;29809;52.432;4.780;2023-04-03T07:59:50;3.25;;;1.70;;
44145;SDS011;29809;52.432;4.780;2023-04-03T08:02:15;2.33;;;1.58;;
44145;SDS011;29809;52.432;4.780;2023-04-03T08:04:41;2.65;;;1.52;;
44145;SDS011;29809;52.432;4.780;2023-04-03T08:07:06;2.65;;;1.85;;
44145;SDS011;29809;52.432;4.780;2023-04-03T08:09:31;2.97;;;1.50;;
44145;SDS011;29809;52.432;4.780;2023-04-03T08:11:57;3.10;;;1.40;;
44145;SDS011;29809;52.432;4.780;2023-04-03T08:14:22;3.38;;;1.63;;
44145;SDS011;29809;52.432;4.780;2023-04-03T08:16:48;2.17;;;0.90;;
44145;SDS011;29809;52.432;4.780;2023-04-03T08:19:13;1.65;;;1.17;;
44145;SDS011;29809;52.432;4.780;2023-04-03T08:21:40;2.05;;;1.45;;
44145;SDS011;29809;52.432;4.780;2023-04-03T08:24:06;1.60;;;1.20;;
44145;SDS011;29809;52.432;4.780;2023-04-03T08:26:35;3.15;;;1.33;;
44145;SDS011;29809;52.432;4.780;2023-04-03T08:29:01;2.10;;;1.20;;
44145;SDS011;29809;52.432;4.780;2023-04-03T08:31:26;1.80;;;1.40;;
44145;SDS011;29809;52.432;4.780;2023-04-03T08:33:51;2.55;;;1.50;;
44145;SDS011;29809;52.432;4.780;2023-04-03T08:36:24;1.83;;;1.20;;
44145;SDS011;29809;52.432;4.780;2023-04-03T08:38:50;2.58;;;1.30;;
44145;SDS011;29809;52.432;4.780;2023-04-03T08:46:26;2.15;;;1.35;;
44145;SDS011;29809;52.432;4.780;2023-04-03T08:48:57;1.55;;;1.17;;
44145;SDS011;29809;52.432;4.780;2023-04-03T08:51:23;3.28;;;1.70;;
44145;SDS011;29809;52.432;4.780;2023-04-03T08:54:01;3.13;;;1.25;;
44145;SDS011;29809;52.432;4.780;2023-04-03T08:56:28;1.65;;;1.23;;
44145;SDS011;29809;52.432;4.780;2023-04-03T08:58:59;2.72;;;1.10;;
44145;SDS011;29809;52.432;4.780;2023-04-03T09:01:38;1.75;;;1.48;;
44145;SDS011;29809;52.432;4.780;2023-04-03T09:04:09;1.83;;;1.05;;
44145;SDS011;29809;52.432;4.780;2023-04-03T09:06:35;2.47;;;1.20;;
44145;SDS011;29809;52.432;4.780;2023-04-03T09:17:04;3.47;;;1.35;;
44145;SDS011;29809;52.432;4.780;2023-04-03T09:19:36;2.45;;;1.40;;
44145;SDS011;29809;52.432;4.780;2023-04-03T09:22:12;1.55;;;1.05;;
44145;SDS011;29809;52.432;4.780;2023-04-03T09:24:39;2.17;;;1.08;;
44145;SDS011;29809;52.432;4.780;2023-04-03T09:27:06;1.67;;;1.30;;
44145;SDS011;29809;52.432;4.780;2023-04-03T09:29:33;2.33;;;1.20;;
44145;SDS011;29809;52.432;4.780;2023-04-03T09:32:01;1.77;;;1.25;;
44145;SDS011;29809;52.432;4.780;2023-04-03T09:34:30;2.78;;;1.40;;
44145;SDS011;29809;52.432;4.780;2023-04-03T09:36:57;1.52;;;0.98;;
44145;SDS011;29809;52.432;4.780;2023-04-03T09:39:28;1.83;;;1.10;;
44145;SDS011;29809;52.432;4.780;2023-04-03T09:44:37;2.13;;;1.10;;
44145;SDS011;29809;52.432;4.780;2023-04-03T09:47:21;1.65;;;1.25;;
44145;SDS011;29809;52.432;4.780;2023-04-03T09:49:48;1.05;;;0.93;;
44145;SDS011;29809;52.432;4.780;2023-04-03T09:52:22;1.00;;;0.85;;
44145;SDS011;29809;52.432;4.780;2023-04-03T09:54:48;1.65;;;1.00;;
44145;SDS011;29809;52.432;4.780;2023-04-03T09:57:14;2.33;;;1.00;;
44145;SDS011;29809;52.432;4.780;2023-04-03T09:59:44;1.40;;;1.00;;
44145;SDS011;29809;52.432;4.780;2023-04-03T10:05:05;2.03;;;1.10;;
44145;SDS011;29809;52.432;4.780;2023-04-03T10:07:48;1.38;;;1.00;;
44145;SDS011;29809;52.432;4.780;2023-04-03T10:10:22;2.17;;;1.17;;
44145;SDS011;29809;52.432;4.780;2023-04-03T10:13:07;1.42;;;0.80;;
44145;SDS011;29809;52.432;4.780;2023-04-03T10:15:36;1.15;;;1.05;;
44145;SDS011;29809;52.432;4.780;2023-04-03T10:18:02;1.30;;;0.80;;
44145;SDS011;29809;52.432;4.780;2023-04-03T10:20:33;2.25;;;0.80;;
44145;SDS011;29809;52.432;4.780;2023-04-03T10:25:43;1.05;;;0.60;;
44145;SDS011;29809;52.432;4.780;2023-04-03T10:28:17;1.30;;;0.77;;
44145;SDS011;29809;52.432;4.780;2023-04-03T10:40:59;0.90;;;0.73;;
44145;SDS011;29809;52.432;4.780;2023-04-03T10:43:33;2.03;;;0.77;;
44145;SDS011;29809;52.432;4.780;2023-04-03T10:46:15;1.33;;;0.68;;
44145;SDS011;29809;52.432;4.780;2023-04-03T10:48:45;1.67;;;0.90;;
44145;SDS011;29809;52.432;4.780;2023-04-03T10:56:28;1.35;;;0.80;;
44145;SDS011;29809;52.432;4.780;2023-04-03T11:01:39;1.17;;;0.63;;
44145;SDS011;29809;52.432;4.780;2023-04-03T11:04:06;1.23;;;0.80;;
44145;SDS011;29809;52.432;4.780;2023-04-03T11:06:35;6.30;;;0.85;;
44145;SDS011;29809;52.432;4.780;2023-04-03T11:09:07;2.10;;;0.80;;
44145;SDS011;29809;52.432;4.780;2023-04-03T11:11:37;0.60;;;0.60;;
44145;SDS011;29809;52.432;4.780;2023-04-03T11:16:58;1.38;;;0.75;;
44145;SDS011;29809;52.432;4.780;2023-04-03T11:24:39;1.95;;;0.70;;
44145;SDS011;29809;52.432;4.780;2023-04-03T11:27:08;0.52;;;0.52;;
44145;SDS011;29809;52.432;4.780;2023-04-03T11:29:37;1.13;;;0.70;;
44145;SDS011;29809;52.432;4.780;2023-04-03T11:32:10;1.27;;;0.57;;
44145;SDS011;29809;52.432;4.780;2023-04-03T11:34:45;0.73;;;0.63;;
44145;SDS011;29809;52.432;4.780;2023-04-03T11:37:28;1.35;;;0.73;;
44145;SDS011;29809;52.432;4.780;2023-04-03T11:39:58;2.10;;;0.60;;
44145;SDS011;29809;52.432;4.780;2023-04-03T11:43:07;1.30;;;0.50;;
44145;SDS011;29809;52.432;4.780;2023-04-03T11:48:44;1.15;;;0.47;;
44145;SDS011;29809;52.432;4.780;2023-04-03T11:50:47;0.73;;;0.73;;
44145;SDS011;29809;52.432;4.780;2023-04-03T11:55:45;0.90;;;0.70;;
44145;SDS011;29809;52.432;4.780;2023-04-03T11:58:17;0.90;;;0.57;;
44145;SDS011;29809;52.432;4.780;2023-04-03T12:13:35;0.52;;;0.40;;
44145;SDS011;29809;52.432;4.780;2023-04-03T12:16:00;0.60;;;0.60;;
44145;SDS011;29809;52.432;4.780;2023-04-03T12:21:21;0.90;;;0.60;;
44145;SDS011;29809;52.432;4.780;2023-04-03T12:29:01;0.57;;;0.57;;
44145;SDS011;29809;52.432;4.780;2023-04-03T12:31:37;1.27;;;0.60;;
44145;SDS011;29809;52.432;4.780;2023-04-03T12:34:17;0.68;;;0.50;;
44145;SDS011;29809;52.432;4.780;2023-04-03T12:36:48;2.38;;;0.50;;
44145;SDS011;29809;52.432;4.780;2023-04-03T12:39:20;0.43;;;0.43;;
44145;SDS011;29809;52.432;4.780;2023-04-03T12:42:08;0.50;;;0.50;;
44145;SDS011;29809;52.432;4.780;2023-04-03T12:44:54;1.42;;;0.60;;
44145;SDS011;29809;52.432;4.780;2023-04-03T12:47:43;1.10;;;0.65;;
44145;SDS011;29809;52.432;4.780;2023-04-03T12:52:52;0.52;;;0.52;;
44145;SDS011;29809;52.432;4.780;2023-04-03T12:55:20;1.52;;;0.77;;
44145;SDS011;29809;52.432;4.780;2023-04-03T12:57:46;0.40;;;0.40;;
44145;SDS011;29809;52.432;4.780;2023-04-03T13:00:45;0.68;;;0.60;;
44145;SDS011;29809;52.432;4.780;2023-04-03T13:03:04;0.40;;;0.30;;
44145;SDS011;29809;52.432;4.780;2023-04-03T13:05:31;0.63;;;0.47;;
44145;SDS011;29809;52.432;4.780;2023-04-03T13:08:00;2.00;;;0.60;;
44145;SDS011;29809;52.432;4.780;2023-04-03T13:10:28;1.75;;;0.43;;
44145;SDS011;29809;52.432;4.780;2023-04-03T13:12:57;1.23;;;0.68;;
44145;SDS011;29809;52.432;4.780;2023-04-03T13:15:27;2.15;;;0.68;;
44145;SDS011;29809;52.432;4.780;2023-04-03T13:17:53;0.43;;;0.43;;
44145;SDS011;29809;52.432;4.780;2023-04-03T13:20:20;0.60;;;0.60;;
44145;SDS011;29809;52.432;4.780;2023-04-03T13:22:48;0.50;;;0.50;;
44145;SDS011;29809;52.432;4.780;2023-04-03T13:25:15;0.80;;;0.70;;
44145;SDS011;29809;52.432;4.780;2023-04-03T13:27:41;0.50;;;0.50;;
44145;SDS011;29809;52.432;4.780;2023-04-03T13:30:26;0.82;;;0.52;;
44145;SDS011;29809;52.432;4.780;2023-04-03T13:32:51;0.50;;;0.50;;
44145;SDS011;29809;52.432;4.780;2023-04-03T13:35:27;1.15;;;0.50;;
44145;SDS011;29809;52.432;4.780;2023-04-03T13:37:53;1.67;;;0.68;;
44145;SDS011;29809;52.432;4.780;2023-04-03T13:40:19;0.93;;;0.38;;
44145;SDS011;29809;52.432;4.780;2023-04-03T13:42:44;0.68;;;0.50;;
44145;SDS011;29809;52.432;4.780;2023-04-03T13:45:20;1.10;;;0.70;;
44145;SDS011;29809;52.432;4.780;2023-04-03T13:47:46;1.02;;;0.50;;
44145;SDS011;29809;52.432;4.780;2023-04-03T13:52:41;0.75;;;0.60;;
44145;SDS011;29809;52.432;4.780;2023-04-03T13:57:49;0.70;;;0.57;;
44145;SDS011;29809;52.432;4.780;2023-04-03T14:00:32;1.33;;;0.70;;
44145;SDS011;29809;52.432;4.780;2023-04-03T14:02:57;0.85;;;0.40;;
44145;SDS011;29809;52.432;4.780;2023-04-03T14:05:23;0.65;;;0.52;;
44145;SDS011;29809;52.432;4.780;2023-04-03T14:07:50;0.40;;;0.40;;
44145;SDS011;29809;52.432;4.780;2023-04-03T14:10:15;0.93;;;0.60;;
44145;SDS011;29809;52.432;4.780;2023-04-03T14:12:41;0.73;;;0.40;;
44145;SDS011;29809;52.432;4.780;2023-04-03T14:15:26;0.93;;;0.70;;
44145;SDS011;29809;52.432;4.780;2023-04-03T14:17:52;0.70;;;0.57;;
44145;SDS011;29809;52.432;4.780;2023-04-03T14:20:19;0.93;;;0.70;;
44145;SDS011;29809;52.432;4.780;2023-04-03T14:22:45;0.65;;;0.65;;
44145;SDS011;29809;52.432;4.780;2023-04-03T14:25:11;1.23;;;0.70;;
44145;SDS011;29809;52.432;4.780;2023-04-03T14:27:40;0.60;;;0.60;;
44145;SDS011;29809;52.432;4.780;2023-04-03T14:30:08;1.35;;;0.73;;
44145;SDS011;29809;52.432;4.780;2023-04-03T14:32:33;0.80;;;0.80;;
44145;SDS011;29809;52.432;4.780;2023-04-03T14:35:00;1.42;;;0.60;;
44145;SDS011;29809;52.432;4.780;2023-04-03T14:37:26;0.98;;;0.60;;
44145;SDS011;29809;52.432;4.780;2023-04-03T14:39:53;0.82;;;0.60;;
44145;SDS011;29809;52.432;4.780;2023-04-03T14:42:21;0.50;;;0.40;;
44145;SDS011;29809;52.432;4.780;2023-04-03T14:44:47;0.80;;;0.50;;
44145;SDS011;29809;52.432;4.780;2023-04-03T14:47:12;1.25;;;0.60;;
44145;SDS011;29809;52.432;4.780;2023-04-03T14:49:38;0.68;;;0.65;;
44145;SDS011;29809;52.432;4.780;2023-04-03T14:52:03;2.08;;;0.80;;
44145;SDS011;29809;52.432;4.780;2023-04-03T14:54:29;1.40;;;0.80;;
44145;SDS011;29809;52.432;4.780;2023-04-03T14:56:54;1.30;;;0.57;;
44145;SDS011;29809;52.432;4.780;2023-04-03T14:59:20;1.13;;;0.70;;
44145;SDS011;29809;52.432;4.780;2023-04-03T15:01:46;1.42;;;0.70;;
44145;SDS011;29809;52.432;4.780;2023-04-03T15:04:13;0.60;;;0.60;;
44145;SDS011;29809;52.432;4.780;2023-04-03T15:06:38;0.82;;;0.57;;
44145;SDS011;29809;52.432;4.780;2023-04-03T15:09:04;0.98;;;0.77;;
44145;SDS011;29809;52.432;4.780;2023-04-03T15:11:29;0.63;;;0.43;;
44145;SDS011;29809;52.432;4.780;2023-04-03T15:13:54;0.70;;;0.63;;
44145;SDS011;29809;52.432;4.780;2023-04-03T15:16:20;0.73;;;0.70;;
44145;SDS011;29809;52.432;4.780;2023-04-03T15:18:46;1.20;;;0.70;;
44145;SDS011;29809;52.432;4.780;2023-04-03T15:21:12;0.75;;;0.60;;
44145;SDS011;29809;52.432;4.780;2023-04-03T15:23:37;0.68;;;0.50;;
44145;SDS011;29809;52.432;4.780;2023-04-03T15:26:03;1.20;;;0.90;;
44145;SDS011;29809;52.432;4.780;2023-04-03T15:28:41;1.83;;;0.50;;
44145;SDS011;29809;52.432;4.780;2023-04-03T15:31:06;0.95;;;0.63;;
44145;SDS011;29809;52.432;4.780;2023-04-03T15:33:32;1.88;;;0.90;;
44145;SDS011;29809;52.432;4.780;2023-04-03T15:35:58;2.70;;;1.10;;
44145;SDS011;29809;52.432;4.780;2023-04-03T15:38:24;2.22;;;0.70;;
44145;SDS011;29809;52.432;4.780;2023-04-03T15:40:49;4.22;;;0.70;;
44145;SDS011;29809;52.432;4.780;2023-04-03T15:43:15;1.25;;;0.70;;
44145;SDS011;29809;52.432;4.780;2023-04-03T15:45:40;0.57;;;0.55;;
44145;SDS011;29809;52.432;4.780;2023-04-03T15:48:06;2.05;;;0.85;;
44145;SDS011;29809;52.432;4.780;2023-04-03T15:50:32;2.05;;;0.90;;
44145;SDS011;29809;52.432;4.780;2023-04-03T15:52:58;0.90;;;0.57;;
44145;SDS011;29809;52.432;4.780;2023-04-03T15:55:24;2.03;;;1.00;;
44145;SDS011;29809;52.432;4.780;2023-04-03T15:57:50;1.00;;;0.80;;
44145;SDS011;29809;52.432;4.780;2023-04-03T16:00:15;1.48;;;0.63;;
44145;SDS011;29809;52.432;4.780;2023-04-03T16:02:41;2.17;;;0.73;;
44145;SDS011;29809;52.432;4.780;2023-04-03T16:05:08;0.88;;;0.52;;
44145;SDS011;29809;52.432;4.780;2023-04-03T16:07:33;1.15;;;1.10;;
44145;SDS011;29809;52.432;4.780;2023-04-03T16:09:59;1.20;;;0.68;;
44145;SDS011;29809;52.432;4.780;2023-04-03T16:12:24;0.63;;;0.57;;